createdAt,value
2023-01-15T00:02:16.851Z,5.20
2023-01-15T00:04:43.837Z,5.20
2023-01-15T00:07:10.825Z,5.20
2023-01-15T00:09:37.783Z,5.10
2023-01-15T00:12:05.112Z,5.10
2023-01-15T00:14:32.111Z,5.10
2023-01-15T00:16:59.059Z,5.10
2023-01-15T00:19:26.031Z,5.00
2023-01-15T00:21:54.106Z,5.10
2023-01-15T00:24:39.609Z,5.10
2023-01-15T00:27:25.143Z,5.10
2023-01-15T00:29:52.088Z,5.10
2023-01-15T00:32:19.092Z,5.10
2023-01-15T00:34:46.050Z,5.10
2023-01-15T00:37:13.073Z,5.20
2023-01-15T00:39:40.008Z,5.20
2023-01-15T00:42:06.924Z,5.10
2023-01-15T00:44:34.032Z,5.10
2023-01-15T00:47:01.318Z,5.20
2023-01-15T00:49:28.312Z,5.20
2023-01-15T00:51:55.306Z,5.20
2023-01-15T00:54:22.397Z,5.20
2023-01-15T00:56:49.392Z,5.10
2023-01-15T00:59:16.564Z,5.10
2023-01-15T01:01:43.719Z,5.10
2023-01-15T01:04:10.801Z,5.00
2023-01-15T01:06:37.767Z,5.00
2023-01-15T01:09:04.929Z,4.90
2023-01-15T01:11:34.472Z,4.90
2023-01-15T01:14:02.807Z,4.90
2023-01-15T01:16:38.715Z,4.80
2023-01-15T01:19:19.180Z,4.80
2023-01-15T01:21:47.509Z,4.90
2023-01-15T01:24:20.811Z,4.80
2023-01-15T01:26:48.776Z,4.80
2023-01-15T01:29:18.230Z,4.80
2023-01-15T01:31:45.367Z,4.80
2023-01-15T01:34:12.992Z,4.80
2023-01-15T01:36:42.397Z,4.80
2023-01-15T01:39:15.038Z,4.90
2023-01-15T01:41:42.334Z,4.80
2023-01-15T01:44:35.042Z,4.80
2023-01-15T01:47:15.618Z,4.80
2023-01-15T01:49:44.896Z,4.80
2023-01-15T01:52:17.548Z,4.80
2023-01-15T01:54:47.329Z,4.90
2023-01-15T01:57:16.742Z,4.90
2023-01-15T01:59:44.055Z,4.90
2023-01-15T02:02:11.402Z,4.90
2023-01-15T02:04:39.192Z,4.90
2023-01-15T02:07:06.997Z,4.90
2023-01-15T02:12:19.853Z,4.90
2023-01-15T02:15:18.375Z,4.90
2023-01-15T02:18:13.077Z,4.90
2023-01-15T02:20:48.183Z,4.90
2023-01-15T02:23:42.350Z,4.90
2023-01-15T02:26:28.067Z,5.00
2023-01-15T02:28:58.377Z,5.00
2023-01-15T02:31:38.876Z,4.90
2023-01-15T02:34:09.076Z,4.90
2023-01-15T02:36:40.672Z,5.00
2023-01-15T02:39:12.048Z,5.00
2023-01-15T02:41:44.585Z,5.00
2023-01-15T02:44:12.767Z,5.00
2023-01-15T02:46:41.716Z,5.00
2023-01-15T02:49:11.957Z,5.00
2023-01-15T02:51:53.371Z,5.00
2023-01-15T02:54:23.496Z,5.00
2023-01-15T02:56:51.529Z,5.00
2023-01-15T02:59:39.534Z,5.00
2023-01-15T03:02:15.823Z,5.00
2023-01-15T03:05:11.886Z,5.10
2023-01-15T03:07:50.304Z,5.10
2023-01-15T03:10:17.791Z,5.10
2023-01-15T03:13:05.644Z,5.10
2023-01-15T03:16:06.662Z,5.10
2023-01-15T03:18:45.504Z,5.20
2023-01-15T03:21:20.931Z,5.20
2023-01-15T03:23:54.207Z,5.20
2023-01-15T03:26:23.956Z,5.20
2023-01-15T03:28:53.933Z,5.30
2023-01-15T03:31:22.437Z,5.20
2023-01-15T03:33:53.575Z,5.30
2023-01-15T03:36:23.188Z,5.30
2023-01-15T03:38:53.102Z,5.30
2023-01-15T03:41:35.004Z,5.30
2023-01-15T03:44:26.420Z,5.30
2023-01-15T03:47:04.628Z,5.30
2023-01-15T03:50:01.924Z,5.40
2023-01-15T03:52:43.777Z,5.30
2023-01-15T03:55:22.296Z,5.40
2023-01-15T03:58:01.731Z,5.30
2023-01-15T04:00:35.335Z,5.40
2023-01-15T04:03:06.478Z,5.40
2023-01-15T04:05:39.157Z,5.40
2023-01-15T04:08:09.377Z,5.40
2023-01-15T04:10:38.679Z,5.40
2023-01-15T04:13:09.513Z,5.40
2023-01-15T04:15:39.140Z,5.40
2023-01-15T04:18:08.120Z,5.40
2023-01-15T04:20:37.419Z,5.40
2023-01-15T04:23:06.915Z,5.40
2023-01-15T04:25:35.710Z,5.50
2023-01-15T04:28:05.627Z,5.40
2023-01-15T04:30:34.925Z,5.50
2023-01-15T04:33:04.810Z,5.50
2023-01-15T04:35:33.530Z,5.50
2023-01-15T04:38:03.448Z,5.50
2023-01-15T04:40:50.561Z,5.50
2023-01-15T04:43:39.228Z,5.50
2023-01-15T04:46:08.879Z,5.50
2023-01-15T04:48:38.741Z,5.40
2023-01-15T04:51:08.963Z,5.40
2023-01-15T04:53:37.959Z,5.40
2023-01-15T04:56:08.479Z,5.30
2023-01-15T04:58:39.010Z,5.30
2023-01-15T05:01:15.806Z,5.30
2023-01-15T05:03:45.600Z,5.30
2023-01-15T05:06:15.515Z,5.30
2023-01-15T05:08:45.429Z,5.20
2023-01-15T05:11:14.017Z,5.20
2023-01-15T05:13:43.910Z,5.20
2023-01-15T05:16:20.702Z,5.10
2023-01-15T05:18:53.691Z,5.10
2023-01-15T05:21:32.211Z,5.10
2023-01-15T05:24:05.500Z,5.10
2023-01-15T05:26:35.179Z,5.10
2023-01-15T05:29:05.643Z,5.10
2023-01-15T05:31:35.554Z,5.10
2023-01-15T05:34:09.466Z,5.10
2023-01-15T05:36:38.457Z,5.00
2023-01-15T05:39:08.684Z,5.00
2023-01-15T05:41:55.805Z,5.00
2023-01-15T05:44:32.478Z,5.00
2023-01-15T05:47:08.531Z,5.00
2023-01-15T05:49:44.217Z,5.00
2023-01-15T05:52:15.019Z,5.00
2023-01-15T05:54:45.955Z,5.00
2023-01-15T05:57:16.180Z,5.00
2023-01-15T05:59:47.629Z,5.10
2023-01-15T06:02:19.719Z,5.10
2023-01-15T06:04:50.837Z,5.00
2023-01-15T06:07:22.588Z,5.00
2023-01-15T06:09:55.901Z,5.00
2023-01-15T06:12:25.799Z,5.00
2023-01-15T06:14:55.733Z,4.90
2023-01-15T06:17:25.631Z,4.90
2023-01-15T06:19:56.168Z,4.90
2023-01-15T06:22:28.541Z,4.90
2023-01-15T06:24:59.370Z,4.90
2023-01-15T06:27:32.053Z,4.80
2023-01-15T06:30:01.684Z,4.80
2023-01-15T06:32:31.875Z,4.80
2023-01-15T06:35:04.870Z,4.70
2023-01-15T06:37:35.708Z,4.70
2023-01-15T06:40:04.050Z,4.70
2023-01-15T06:42:52.120Z,4.70
2023-01-15T06:45:40.774Z,4.70
2023-01-15T06:48:10.081Z,4.70
2023-01-15T06:50:40.607Z,4.60
2023-01-15T06:53:09.600Z,4.60
2023-01-15T06:55:39.508Z,4.60
2023-01-15T06:58:09.121Z,4.60
2023-01-15T07:00:39.084Z,4.60
2023-01-15T07:03:08.645Z,4.60
2023-01-15T07:05:41.321Z,4.60
2023-01-15T07:08:11.848Z,4.60
2023-01-15T07:10:43.207Z,4.60
2023-01-15T07:13:13.529Z,4.60
2023-01-15T07:15:43.979Z,4.60
2023-01-15T07:18:13.876Z,4.60
2023-01-15T07:20:43.587Z,4.60
2023-01-15T07:23:13.724Z,4.60
2023-01-15T07:25:43.405Z,4.60
2023-01-15T07:28:13.628Z,4.50
2023-01-15T07:30:43.996Z,4.50
2023-01-15T07:33:13.875Z,4.50
2023-01-15T07:35:43.886Z,4.50
2023-01-15T07:38:13.289Z,4.50
2023-01-15T07:40:43.822Z,4.50
2023-01-15T07:43:31.558Z,4.50
2023-01-15T07:46:33.859Z,4.40
2023-01-15T07:49:33.862Z,4.40
2023-01-15T07:52:05.502Z,4.40
2023-01-15T07:54:35.726Z,4.40
2023-01-15T07:57:09.945Z,4.40
2023-01-15T07:59:43.242Z,4.40
2023-01-15T08:02:16.539Z,4.40
2023-01-15T08:04:47.363Z,4.40
2023-01-15T08:07:17.907Z,4.30
2023-01-15T08:09:48.736Z,4.40
2023-01-15T08:12:41.069Z,4.40
2023-01-15T08:15:15.593Z,4.30
2023-01-15T08:17:52.274Z,4.30
2023-01-15T08:20:26.176Z,4.30
2023-01-15T08:22:57.316Z,4.30
2023-01-15T08:25:33.081Z,4.30
2023-01-15T08:28:10.375Z,4.30
2023-01-15T08:30:44.215Z,4.30
2023-01-15T08:33:15.727Z,4.30
2023-01-15T08:35:45.937Z,4.30
2023-01-15T08:38:18.024Z,4.30
2023-01-15T08:41:03.595Z,4.30
2023-01-15T08:43:39.953Z,4.30
2023-01-15T08:48:45.624Z,4.30
2023-01-15T08:51:17.688Z,4.20
2023-01-15T08:53:53.437Z,4.20
2023-01-15T08:56:25.513Z,4.20
2023-01-15T08:58:54.499Z,4.20
2023-01-15T09:01:26.094Z,4.20
2023-01-15T09:03:58.942Z,4.10
2023-01-15T09:06:33.155Z,4.20
2023-01-15T09:09:05.220Z,4.10
2023-01-15T09:11:36.368Z,4.10
2023-01-15T09:14:06.580Z,4.10
2023-01-15T09:16:38.051Z,4.10
2023-01-15T09:19:13.884Z,4.10
2023-01-15T09:21:46.471Z,4.10
2023-01-15T09:24:21.605Z,4.10
2023-01-15T09:26:54.395Z,4.10
2023-01-15T09:29:27.879Z,4.00
2023-01-15T09:31:59.335Z,4.00
2023-01-15T09:34:31.822Z,4.00
2023-01-15T09:37:05.167Z,4.00
2023-01-15T09:39:35.847Z,4.00
2023-01-15T09:42:17.122Z,4.00
2023-01-15T09:45:12.534Z,4.00
2023-01-15T09:48:04.869Z,4.00
2023-01-15T09:50:53.828Z,4.00
2023-01-15T09:53:46.179Z,4.00
2023-01-15T09:56:26.230Z,3.90
2023-01-15T09:58:57.956Z,3.90
2023-01-15T10:01:35.965Z,3.90
2023-01-15T10:07:35.929Z,3.90
2023-01-15T10:10:15.278Z,3.90
2023-01-15T10:12:53.578Z,3.90
2023-01-15T10:15:54.387Z,3.90
2023-01-15T10:18:32.731Z,3.90
2023-01-15T10:21:36.127Z,3.90
2023-01-15T10:24:31.239Z,3.90
2023-01-15T10:27:01.456Z,4.00
2023-01-15T10:29:45.814Z,3.90
2023-01-15T10:32:25.861Z,3.90
2023-01-15T10:35:26.188Z,3.90
2023-01-15T10:38:17.616Z,3.90
2023-01-15T10:40:50.900Z,3.90
2023-01-15T10:43:46.014Z,3.90
2023-01-15T10:46:19.957Z,4.00
2023-01-15T10:49:12.873Z,4.00
2023-01-15T10:51:43.439Z,3.90
2023-01-15T10:54:25.602Z,3.90
2023-01-15T10:57:13.812Z,3.90
2023-01-15T11:00:16.114Z,3.90
2023-01-15T11:03:18.633Z,3.90
2023-01-15T11:05:52.817Z,3.90
2023-01-15T11:12:00.612Z,3.90
2023-01-15T11:15:03.811Z,3.90
2023-01-15T11:18:02.729Z,3.90
2023-01-15T11:20:36.968Z,3.80
2023-01-15T11:23:21.605Z,3.80
2023-01-15T11:25:59.215Z,3.80
2023-01-15T11:28:42.281Z,3.80
2023-01-15T11:31:16.257Z,3.80
2023-01-15T11:34:06.422Z,3.70
2023-01-15T11:36:37.274Z,3.70
2023-01-15T11:39:06.867Z,3.70
2023-01-15T11:41:55.522Z,3.70
2023-01-15T11:44:44.485Z,3.70
2023-01-15T11:47:39.584Z,3.70
2023-01-15T11:50:41.763Z,3.60
2023-01-15T11:53:25.508Z,3.60
2023-01-15T11:56:02.510Z,3.60
2023-01-15T11:58:45.611Z,3.50
2023-01-15T12:01:32.464Z,3.50
2023-01-15T12:04:05.101Z,3.50
2023-01-15T12:06:43.307Z,3.50
2023-01-15T12:09:29.499Z,3.40
2023-01-15T12:12:29.520Z,3.40
2023-01-15T12:15:10.193Z,3.40
2023-01-15T12:17:53.319Z,3.30
2023-01-15T12:21:03.474Z,3.30
2023-01-15T12:23:55.503Z,3.30
2023-01-15T12:26:34.943Z,3.30
2023-01-15T12:29:13.919Z,3.20
2023-01-15T12:32:05.490Z,3.20
2023-01-15T12:34:55.218Z,3.20
2023-01-15T12:38:01.847Z,3.20
2023-01-15T12:40:57.878Z,3.20
2023-01-15T12:43:47.148Z,3.10
2023-01-15T12:46:33.961Z,3.10
2023-01-15T12:49:34.898Z,3.10
2023-01-15T12:52:18.750Z,3.10
2023-01-15T12:55:16.203Z,3.10
2023-01-15T12:57:56.564Z,3.00
2023-01-15T13:00:53.564Z,3.00
2023-01-15T13:03:59.688Z,3.00
2023-01-15T13:06:33.275Z,3.00
2023-01-15T13:09:25.017Z,2.90
2023-01-15T13:11:55.531Z,2.90
2023-01-15T13:14:26.096Z,2.90
2023-01-15T13:17:18.393Z,2.90
2023-01-15T13:20:23.335Z,2.90
2023-01-15T13:23:22.746Z,2.80
2023-01-15T13:26:13.240Z,2.80
2023-01-15T13:28:52.380Z,2.80
2023-01-15T13:31:49.473Z,2.80
2023-01-15T13:34:45.964Z,2.80
2023-01-15T13:37:36.456Z,2.80
2023-01-15T13:40:26.034Z,2.80
2023-01-15T13:42:57.494Z,2.80
2023-01-15T13:45:45.967Z,2.80
2023-01-15T13:48:25.893Z,2.80
2023-01-15T13:51:03.191Z,2.80
2023-01-15T13:53:46.301Z,2.80
2023-01-15T13:56:30.359Z,2.80
2023-01-15T13:59:07.937Z,2.80
2023-01-15T14:01:41.119Z,2.80
2023-01-15T14:04:19.441Z,2.80
2023-01-15T14:06:53.855Z,2.80
2023-01-15T14:09:26.959Z,2.80
2023-01-15T14:12:16.226Z,2.80
2023-01-15T14:15:03.344Z,2.80
2023-01-15T14:18:03.852Z,2.80
2023-01-15T14:21:03.113Z,2.80
2023-01-15T14:23:43.909Z,2.80
2023-01-15T14:26:28.405Z,2.80
2023-01-15T14:29:13.692Z,2.80
2023-01-15T14:31:55.887Z,2.80
2023-01-15T14:34:30.425Z,2.80
2023-01-15T14:37:11.065Z,2.80
2023-01-15T14:40:20.003Z,2.80
2023-01-15T14:43:04.998Z,2.80
2023-01-15T14:45:46.860Z,2.80
2023-01-15T14:48:35.819Z,2.70
2023-01-15T14:51:31.851Z,2.80
2023-01-15T14:54:14.976Z,2.80
2023-01-15T14:56:51.649Z,2.70
2023-01-15T14:59:56.276Z,2.80
2023-01-15T15:02:40.286Z,2.80
2023-01-15T15:05:20.690Z,2.80
2023-01-15T15:07:57.044Z,2.80
2023-01-15T15:10:46.934Z,2.80
2023-01-15T15:13:30.377Z,2.80
2023-01-15T15:16:31.040Z,2.80
2023-01-15T15:19:23.459Z,2.80
2023-01-15T15:21:53.731Z,2.80
2023-01-15T15:24:39.146Z,2.80
2023-01-15T15:27:21.382Z,2.80
2023-01-15T15:29:55.561Z,2.90
2023-01-15T15:32:28.559Z,2.90
2023-01-15T15:35:02.772Z,2.90
2023-01-15T15:37:33.872Z,2.90
2023-01-15T15:40:05.978Z,2.90
2023-01-15T15:42:57.398Z,3.00
2023-01-15T15:45:50.700Z,3.00
2023-01-15T15:48:45.136Z,3.00
2023-01-15T15:51:36.562Z,3.10
2023-01-15T15:54:20.002Z,3.10
2023-01-15T15:57:03.585Z,3.10
2023-01-15T15:59:33.804Z,3.10
2023-01-15T16:02:14.213Z,3.20
2023-01-15T16:04:51.223Z,3.10
2023-01-15T16:07:33.939Z,3.20
2023-01-15T16:10:31.703Z,3.20
2023-01-15T16:13:03.574Z,3.20
2023-01-15T16:15:34.280Z,3.20
2023-01-15T16:18:02.832Z,3.20
2023-01-15T16:20:29.901Z,3.30
2023-01-15T16:23:02.389Z,3.30
2023-01-15T16:25:42.269Z,3.40
2023-01-15T16:28:34.947Z,3.40
2023-01-15T16:31:02.922Z,3.40
2023-01-15T16:33:30.473Z,3.40
2023-01-15T16:36:04.807Z,3.40
2023-01-15T16:38:34.463Z,3.50
2023-01-15T16:41:04.529Z,3.50
2023-01-15T16:43:32.241Z,3.50
2023-01-15T16:46:19.685Z,3.50
2023-01-15T16:48:48.558Z,3.60
2023-01-15T16:51:31.920Z,3.60
2023-01-15T16:54:06.585Z,3.60
2023-01-15T16:56:37.450Z,3.60
2023-01-15T16:59:31.383Z,3.60
2023-01-15T17:02:05.940Z,3.60
2023-01-15T17:04:41.530Z,3.70
2023-01-15T17:07:17.127Z,3.70
2023-01-15T17:09:54.230Z,3.70
2023-01-15T17:12:34.636Z,3.70
2023-01-15T17:15:16.665Z,3.70
2023-01-15T17:17:47.784Z,3.80
2023-01-15T17:20:15.447Z,3.70
2023-01-15T17:22:45.083Z,3.70
2023-01-15T17:25:32.340Z,3.80
2023-01-15T17:28:00.409Z,3.80
2023-01-15T17:30:34.725Z,3.80
2023-01-15T17:33:03.845Z,3.90
2023-01-15T17:35:36.464Z,3.90
2023-01-15T17:38:04.229Z,4.00
2023-01-15T17:40:32.877Z,4.00
2023-01-15T17:43:00.010Z,4.10
2023-01-15T17:45:30.691Z,4.10
2023-01-15T17:47:57.858Z,4.10
2023-01-15T17:50:25.411Z,4.10
2023-01-15T17:52:52.685Z,4.10
2023-01-15T17:55:41.176Z,4.10
2023-01-15T17:58:31.516Z,4.10
2023-01-15T18:01:17.719Z,4.10
2023-01-15T18:04:09.470Z,4.20
2023-01-15T18:06:36.859Z,4.20
2023-01-15T18:09:07.141Z,4.20
2023-01-15T18:11:34.097Z,4.30
2023-01-15T18:14:01.015Z,4.30
2023-01-15T18:16:36.336Z,4.30
2023-01-15T18:19:03.490Z,4.30
2023-01-15T18:21:30.606Z,4.30
2023-01-15T18:23:59.231Z,4.30
2023-01-15T18:26:26.155Z,4.30
2023-01-15T18:28:53.114Z,4.30
2023-01-15T18:31:20.032Z,4.30
2023-01-15T18:33:46.965Z,4.30
2023-01-15T18:36:15.293Z,4.40
2023-01-15T18:38:49.416Z,4.40
2023-01-15T18:41:37.561Z,4.40
2023-01-15T18:44:31.763Z,4.40
2023-01-15T18:47:01.847Z,4.40
2023-01-15T18:49:29.709Z,4.40
2023-01-15T18:52:15.795Z,4.40
2023-01-15T18:54:43.759Z,4.40
2023-01-15T18:57:10.793Z,4.50
2023-01-15T18:59:37.812Z,4.50
2023-01-15T19:02:05.178Z,4.50
2023-01-15T19:04:32.149Z,4.50
2023-01-15T19:07:00.062Z,4.50
2023-01-15T19:09:27.181Z,4.50
2023-01-15T19:11:54.680Z,4.50
2023-01-15T19:14:40.482Z,4.60
2023-01-15T19:17:31.029Z,4.60
2023-01-15T19:19:58.047Z,4.60
2023-01-15T19:22:43.333Z,4.60
2023-01-15T19:25:10.790Z,4.60
2023-01-15T19:27:37.965Z,4.60
2023-01-15T19:30:08.368Z,4.70
2023-01-15T19:32:38.347Z,4.70
2023-01-15T19:35:05.680Z,4.70
2023-01-15T19:37:37.035Z,4.70
2023-01-15T19:40:05.452Z,4.70
2023-01-15T19:42:50.939Z,4.70
2023-01-15T19:45:36.322Z,4.70
2023-01-15T19:48:21.942Z,4.70
2023-01-15T19:50:49.000Z,4.70
2023-01-15T19:53:15.920Z,4.80
2023-01-15T19:55:45.116Z,4.70
2023-01-15T19:58:14.053Z,4.80
2023-01-15T20:00:42.947Z,4.80
2023-01-15T20:03:12.327Z,4.80
2023-01-15T20:05:40.798Z,4.90
2023-01-15T20:08:18.358Z,4.90
2023-01-15T20:10:48.183Z,4.90
2023-01-15T20:13:42.322Z,4.90
2023-01-15T20:16:21.849Z,4.90
2023-01-15T20:18:50.114Z,4.90
2023-01-15T20:21:17.139Z,4.90
2023-01-15T20:23:44.425Z,4.90
2023-01-15T20:26:13.554Z,4.90
2023-01-15T20:28:43.435Z,4.90
2023-01-15T20:31:18.301Z,4.90
2023-01-15T20:33:46.282Z,5.00
2023-01-15T20:36:13.702Z,5.00
2023-01-15T20:38:40.656Z,5.00
2023-01-15T20:41:27.652Z,5.00
2023-01-15T20:44:13.230Z,4.90
2023-01-15T20:46:40.312Z,5.00
2023-01-15T20:49:25.473Z,4.90
2023-01-15T20:51:52.913Z,4.90
2023-01-15T20:54:21.433Z,4.80
2023-01-15T20:56:48.620Z,4.80
2023-01-15T20:59:15.671Z,4.70
2023-01-15T21:01:42.757Z,4.70
2023-01-15T21:04:10.811Z,4.60
2023-01-15T21:06:37.836Z,4.60
2023-01-15T21:09:04.864Z,4.60
2023-01-15T21:11:31.895Z,4.60
2023-01-15T21:13:58.832Z,4.60
2023-01-15T21:16:25.863Z,4.60
2023-01-15T21:18:52.843Z,4.60
2023-01-15T21:21:21.763Z,4.50
2023-01-15T21:23:48.816Z,4.50
2023-01-15T21:26:16.541Z,4.50
2023-01-15T21:28:44.931Z,4.50
2023-01-15T21:31:13.409Z,4.50
2023-01-15T21:33:40.435Z,4.50
2023-01-15T21:36:09.520Z,4.50
2023-01-15T21:38:40.579Z,4.60
2023-01-15T21:41:12.591Z,4.60
2023-01-15T21:43:58.219Z,4.70
2023-01-15T21:46:28.054Z,4.70
2023-01-15T21:48:59.812Z,4.70
2023-01-15T21:51:27.009Z,4.70
2023-01-15T21:53:54.541Z,4.70
2023-01-15T21:56:21.658Z,4.70
2023-01-15T21:58:48.577Z,4.70
2023-01-15T22:01:18.641Z,4.70
2023-01-15T22:03:46.190Z,4.70
2023-01-15T22:06:13.687Z,4.70
2023-01-15T22:08:40.761Z,4.70
2023-01-15T22:11:10.203Z,4.70
2023-01-15T22:13:38.126Z,4.60
2023-01-15T22:16:05.475Z,4.60
2023-01-15T22:18:33.742Z,4.50
2023-01-15T22:21:06.476Z,4.50
2023-01-15T22:23:35.825Z,4.40
2023-01-15T22:26:02.881Z,4.40
2023-01-15T22:28:30.001Z,4.40
2023-01-15T22:30:59.041Z,4.40
2023-01-15T22:33:26.104Z,4.40
2023-01-15T22:35:58.117Z,4.40
2023-01-15T22:38:25.247Z,4.40
2023-01-15T22:40:52.261Z,4.40
2023-01-15T22:43:19.314Z,4.40
2023-01-15T22:45:46.296Z,4.30
2023-01-15T22:48:13.242Z,4.30
2023-01-15T22:50:40.350Z,4.30
2023-01-15T22:53:07.824Z,4.20
2023-01-15T22:55:34.751Z,4.20
2023-01-15T22:58:01.880Z,4.20
2023-01-15T23:00:29.022Z,4.20
2023-01-15T23:02:56.188Z,4.20
2023-01-15T23:05:24.374Z,4.20
2023-01-15T23:07:51.553Z,4.20
2023-01-15T23:10:18.578Z,4.30
2023-01-15T23:12:45.588Z,4.20
2023-01-15T23:15:14.018Z,4.20
2023-01-15T23:17:41.500Z,4.20
2023-01-15T23:20:09.785Z,4.20
2023-01-15T23:22:36.779Z,4.20
2023-01-15T23:25:04.030Z,4.20
2023-01-15T23:27:31.540Z,4.30
2023-01-15T23:29:58.480Z,4.30
2023-01-15T23:32:25.431Z,4.30
2023-01-15T23:34:52.469Z,4.30
2023-01-15T23:37:19.498Z,4.20
2023-01-15T23:39:46.408Z,4.20
2023-01-15T23:42:31.994Z,4.20
2023-01-15T23:45:17.522Z,4.20
2023-01-15T23:47:45.499Z,4.20
2023-01-15T23:50:12.428Z,4.10
2023-01-15T23:52:39.350Z,4.10
2023-01-15T23:55:06.477Z,4.10
2023-01-15T23:57:33.747Z,4.00
